sensor_id;sensor_type;location;lat;lon;timestamp;P1;durP1;ratioP1;P2;durP2;ratioP2
18296;SDS011;18066;52.106;5.534;2023-04-06T00:00:32;15.63;;;6.80;;
18296;SDS011;18066;52.106;5.534;2023-04-06T00:03:01;14.60;;;7.90;;
18296;SDS011;18066;52.106;5.534;2023-04-06T00:05:28;14.17;;;7.70;;
18296;SDS011;18066;52.106;5.534;2023-04-06T00:07:55;16.88;;;10.82;;
18296;SDS011;18066;52.106;5.534;2023-04-06T00:10:23;17.43;;;9.50;;
18296;SDS011;18066;52.106;5.534;2023-04-06T00:12:50;17.70;;;8.70;;
18296;SDS011;18066;52.106;5.534;2023-04-06T00:15:17;16.27;;;8.20;;
18296;SDS011;18066;52.106;5.534;2023-04-06T00:17:43;18.77;;;8.97;;
18296;SDS011;18066;52.106;5.534;2023-04-06T00:20:12;13.97;;;7.60;;
18296;SDS011;18066;52.106;5.534;2023-04-06T00:22:39;14.90;;;9.00;;
18296;SDS011;18066;52.106;5.534;2023-04-06T00:25:06;16.87;;;8.70;;
18296;SDS011;18066;52.106;5.534;2023-04-06T00:27:33;14.23;;;8.30;;
18296;SDS011;18066;52.106;5.534;2023-04-06T00:30:00;13.70;;;7.33;;
18296;SDS011;18066;52.106;5.534;2023-04-06T00:32:26;14.33;;;7.87;;
18296;SDS011;18066;52.106;5.534;2023-04-06T00:34:53;15.23;;;7.73;;
18296;SDS011;18066;52.106;5.534;2023-04-06T00:37:21;11.83;;;7.03;;
18296;SDS011;18066;52.106;5.534;2023-04-06T00:39:48;10.73;;;6.63;;
18296;SDS011;18066;52.106;5.534;2023-04-06T00:42:16;12.40;;;7.47;;
18296;SDS011;18066;52.106;5.534;2023-04-06T00:44:50;12.43;;;8.07;;
18296;SDS011;18066;52.106;5.534;2023-04-06T00:47:17;13.33;;;6.93;;
18296;SDS011;18066;52.106;5.534;2023-04-06T00:49:43;16.50;;;7.43;;
18296;SDS011;18066;52.106;5.534;2023-04-06T00:52:10;13.63;;;7.10;;
18296;SDS011;18066;52.106;5.534;2023-04-06T00:54:38;13.27;;;6.93;;
18296;SDS011;18066;52.106;5.534;2023-04-06T00:57:05;19.03;;;8.10;;
18296;SDS011;18066;52.106;5.534;2023-04-06T00:59:32;13.50;;;7.83;;
18296;SDS011;18066;52.106;5.534;2023-04-06T01:01:59;14.17;;;7.00;;
18296;SDS011;18066;52.106;5.534;2023-04-06T01:04:26;13.27;;;7.40;;
18296;SDS011;18066;52.106;5.534;2023-04-06T01:06:53;15.13;;;7.00;;
18296;SDS011;18066;52.106;5.534;2023-04-06T01:09:19;16.57;;;8.07;;
18296;SDS011;18066;52.106;5.534;2023-04-06T01:11:48;10.83;;;7.10;;
18296;SDS011;18066;52.106;5.534;2023-04-06T01:14:15;10.07;;;6.80;;
18296;SDS011;18066;52.106;5.534;2023-04-06T01:16:42;14.17;;;7.73;;
18296;SDS011;18066;52.106;5.534;2023-04-06T01:19:08;13.80;;;7.93;;
18296;SDS011;18066;52.106;5.534;2023-04-06T01:21:36;13.88;;;9.27;;
18296;SDS011;18066;52.106;5.534;2023-04-06T01:24:04;11.57;;;7.07;;
18296;SDS011;18066;52.106;5.534;2023-04-06T01:26:32;11.97;;;7.00;;
18296;SDS011;18066;52.106;5.534;2023-04-06T01:29:00;14.50;;;7.97;;
18296;SDS011;18066;52.106;5.534;2023-04-06T01:31:27;15.20;;;7.23;;
18296;SDS011;18066;52.106;5.534;2023-04-06T01:33:55;13.17;;;7.50;;
18296;SDS011;18066;52.106;5.534;2023-04-06T01:36:22;13.23;;;6.80;;
18296;SDS011;18066;52.106;5.534;2023-04-06T01:38:48;11.20;;;6.50;;
18296;SDS011;18066;52.106;5.534;2023-04-06T01:41:17;15.67;;;8.07;;
18296;SDS011;18066;52.106;5.534;2023-04-06T01:43:44;11.47;;;6.63;;
18296;SDS011;18066;52.106;5.534;2023-04-06T01:46:11;13.53;;;7.20;;
18296;SDS011;18066;52.106;5.534;2023-04-06T01:48:38;12.77;;;7.40;;
18296;SDS011;18066;52.106;5.534;2023-04-06T01:51:04;12.83;;;7.03;;
18296;SDS011;18066;52.106;5.534;2023-04-06T01:53:31;14.57;;;6.90;;
18296;SDS011;18066;52.106;5.534;2023-04-06T01:55:58;11.90;;;7.23;;
18296;SDS011;18066;52.106;5.534;2023-04-06T01:58:26;8.97;;;6.60;;
18296;SDS011;18066;52.106;5.534;2023-04-06T02:00:53;13.63;;;7.13;;
18296;SDS011;18066;52.106;5.534;2023-04-06T02:03:20;13.17;;;6.60;;
18296;SDS011;18066;52.106;5.534;2023-04-06T02:05:47;13.10;;;7.43;;
18296;SDS011;18066;52.106;5.534;2023-04-06T02:08:13;11.53;;;6.93;;
18296;SDS011;18066;52.106;5.534;2023-04-06T02:10:40;10.50;;;6.93;;
18296;SDS011;18066;52.106;5.534;2023-04-06T02:13:07;10.80;;;6.90;;
18296;SDS011;18066;52.106;5.534;2023-04-06T02:15:35;10.97;;;6.83;;
18296;SDS011;18066;52.106;5.534;2023-04-06T02:18:02;12.25;;;7.18;;
18296;SDS011;18066;52.106;5.534;2023-04-06T02:20:28;14.30;;;7.40;;
18296;SDS011;18066;52.106;5.534;2023-04-06T02:22:56;12.03;;;6.80;;
18296;SDS011;18066;52.106;5.534;2023-04-06T02:25:24;12.43;;;6.70;;
18296;SDS011;18066;52.106;5.534;2023-04-06T02:27:51;15.33;;;7.47;;
18296;SDS011;18066;52.106;5.534;2023-04-06T02:30:18;11.63;;;7.60;;
18296;SDS011;18066;52.106;5.534;2023-04-06T02:32:46;13.47;;;7.50;;
18296;SDS011;18066;52.106;5.534;2023-04-06T02:35:13;11.07;;;6.63;;
18296;SDS011;18066;52.106;5.534;2023-04-06T02:37:39;14.83;;;7.97;;
18296;SDS011;18066;52.106;5.534;2023-04-06T02:40:07;13.17;;;7.40;;
18296;SDS011;18066;52.106;5.534;2023-04-06T02:42:34;11.03;;;6.87;;
18296;SDS011;18066;52.106;5.534;2023-04-06T02:45:01;13.63;;;7.43;;
18296;SDS011;18066;52.106;5.534;2023-04-06T02:47:28;12.63;;;7.37;;
18296;SDS011;18066;52.106;5.534;2023-04-06T02:49:55;12.67;;;6.87;;
18296;SDS011;18066;52.106;5.534;2023-04-06T02:52:22;11.37;;;7.40;;
18296;SDS011;18066;52.106;5.534;2023-04-06T02:54:49;10.77;;;6.83;;
18296;SDS011;18066;52.106;5.534;2023-04-06T02:57:16;15.07;;;7.30;;
18296;SDS011;18066;52.106;5.534;2023-04-06T02:59:43;13.83;;;7.43;;
18296;SDS011;18066;52.106;5.534;2023-04-06T03:02:09;11.57;;;7.10;;
18296;SDS011;18066;52.106;5.534;2023-04-06T03:04:36;12.82;;;9.10;;
18296;SDS011;18066;52.106;5.534;2023-04-06T03:07:04;11.67;;;7.13;;
18296;SDS011;18066;52.106;5.534;2023-04-06T03:09:31;12.80;;;7.40;;
18296;SDS011;18066;52.106;5.534;2023-04-06T03:11:58;14.43;;;7.57;;
18296;SDS011;18066;52.106;5.534;2023-04-06T03:14:25;11.43;;;6.53;;
18296;SDS011;18066;52.106;5.534;2023-04-06T03:16:53;11.60;;;7.37;;
18296;SDS011;18066;52.106;5.534;2023-04-06T03:19:20;14.13;;;8.15;;
18296;SDS011;18066;52.106;5.534;2023-04-06T03:21:46;13.30;;;7.67;;
18296;SDS011;18066;52.106;5.534;2023-04-06T03:24:14;10.43;;;6.73;;
18296;SDS011;18066;52.106;5.534;2023-04-06T03:26:41;12.13;;;7.27;;
18296;SDS011;18066;52.106;5.534;2023-04-06T03:29:08;10.47;;;6.83;;
18296;SDS011;18066;52.106;5.534;2023-04-06T03:31:35;15.07;;;7.90;;
18296;SDS011;18066;52.106;5.534;2023-04-06T03:34:01;13.47;;;6.63;;
18296;SDS011;18066;52.106;5.534;2023-04-06T03:36:28;12.87;;;7.07;;
18296;SDS011;18066;52.106;5.534;2023-04-06T03:38:55;12.13;;;6.07;;
18296;SDS011;18066;52.106;5.534;2023-04-06T03:41:23;10.00;;;6.77;;
18296;SDS011;18066;52.106;5.534;2023-04-06T03:43:51;13.27;;;7.27;;
18296;SDS011;18066;52.106;5.534;2023-04-06T03:46:18;12.60;;;7.07;;
18296;SDS011;18066;52.106;5.534;2023-04-06T03:48:45;13.13;;;8.27;;
18296;SDS011;18066;52.106;5.534;2023-04-06T03:51:13;12.27;;;8.00;;
18296;SDS011;18066;52.106;5.534;2023-04-06T03:53:40;10.93;;;6.97;;
18296;SDS011;18066;52.106;5.534;2023-04-06T03:56:07;13.03;;;7.10;;
18296;SDS011;18066;52.106;5.534;2023-04-06T03:58:35;10.60;;;6.97;;
18296;SDS011;18066;52.106;5.534;2023-04-06T04:01:02;11.23;;;6.63;;
18296;SDS011;18066;52.106;5.534;2023-04-06T04:03:28;14.57;;;8.00;;
18296;SDS011;18066;52.106;5.534;2023-04-06T04:05:55;12.10;;;6.83;;
18296;SDS011;18066;52.106;5.534;2023-04-06T04:08:23;13.87;;;7.03;;
18296;SDS011;18066;52.106;5.534;2023-04-06T04:10:50;11.53;;;6.87;;
18296;SDS011;18066;52.106;5.534;2023-04-06T04:13:17;11.83;;;7.23;;
18296;SDS011;18066;52.106;5.534;2023-04-06T04:15:45;10.70;;;7.03;;
18296;SDS011;18066;52.106;5.534;2023-04-06T04:18:12;12.80;;;8.30;;
18296;SDS011;18066;52.106;5.534;2023-04-06T04:20:39;11.53;;;7.13;;
18296;SDS011;18066;52.106;5.534;2023-04-06T04:23:06;17.40;;;7.67;;
18296;SDS011;18066;52.106;5.534;2023-04-06T04:25:33;13.63;;;7.47;;
18296;SDS011;18066;52.106;5.534;2023-04-06T04:27:59;11.67;;;7.13;;
18296;SDS011;18066;52.106;5.534;2023-04-06T04:30:26;13.83;;;8.20;;
18296;SDS011;18066;52.106;5.534;2023-04-06T04:32:54;14.57;;;7.33;;
18296;SDS011;18066;52.106;5.534;2023-04-06T04:35:21;11.23;;;7.27;;
18296;SDS011;18066;52.106;5.534;2023-04-06T04:37:48;13.60;;;7.30;;
18296;SDS011;18066;52.106;5.534;2023-04-06T04:40:14;11.40;;;7.33;;
18296;SDS011;18066;52.106;5.534;2023-04-06T04:42:41;13.67;;;7.67;;
18296;SDS011;18066;52.106;5.534;2023-04-06T04:45:08;11.77;;;7.70;;
18296;SDS011;18066;52.106;5.534;2023-04-06T04:47:36;16.90;;;8.10;;
18296;SDS011;18066;52.106;5.534;2023-04-06T04:50:05;17.47;;;8.43;;
18296;SDS011;18066;52.106;5.534;2023-04-06T04:52:32;17.13;;;8.30;;
18296;SDS011;18066;52.106;5.534;2023-04-06T04:54:59;14.77;;;7.47;;
18296;SDS011;18066;52.106;5.534;2023-04-06T04:57:25;14.40;;;7.80;;
18296;SDS011;18066;52.106;5.534;2023-04-06T04:59:52;14.20;;;8.30;;
18296;SDS011;18066;52.106;5.534;2023-04-06T05:02:19;13.13;;;7.87;;
18296;SDS011;18066;52.106;5.534;2023-04-06T05:04:45;13.43;;;8.10;;
18296;SDS011;18066;52.106;5.534;2023-04-06T05:07:13;16.23;;;8.73;;
18296;SDS011;18066;52.106;5.534;2023-04-06T05:09:43;14.93;;;7.87;;
18296;SDS011;18066;52.106;5.534;2023-04-06T05:12:10;16.60;;;9.20;;
18296;SDS011;18066;52.106;5.534;2023-04-06T05:14:37;15.37;;;8.57;;
18296;SDS011;18066;52.106;5.534;2023-04-06T05:17:04;13.93;;;8.60;;
18296;SDS011;18066;52.106;5.534;2023-04-06T05:19:30;18.73;;;8.50;;
18296;SDS011;18066;52.106;5.534;2023-04-06T05:21:57;13.23;;;8.23;;
18296;SDS011;18066;52.106;5.534;2023-04-06T05:24:25;14.73;;;8.27;;
18296;SDS011;18066;52.106;5.534;2023-04-06T05:26:52;18.47;;;8.80;;
18296;SDS011;18066;52.106;5.534;2023-04-06T05:29:19;15.50;;;9.23;;
18296;SDS011;18066;52.106;5.534;2023-04-06T05:31:46;14.93;;;8.53;;
18296;SDS011;18066;52.106;5.534;2023-04-06T05:34:13;18.20;;;9.40;;
18296;SDS011;18066;52.106;5.534;2023-04-06T05:36:39;19.50;;;9.53;;
18296;SDS011;18066;52.106;5.534;2023-04-06T05:39:06;15.13;;;9.70;;
18296;SDS011;18066;52.106;5.534;2023-04-06T05:41:34;22.37;;;10.07;;
18296;SDS011;18066;52.106;5.534;2023-04-06T05:44:01;16.05;;;11.00;;
18296;SDS011;18066;52.106;5.534;2023-04-06T05:46:28;21.67;;;10.77;;
18296;SDS011;18066;52.106;5.534;2023-04-06T05:48:55;18.30;;;9.97;;
18296;SDS011;18066;52.106;5.534;2023-04-06T05:51:22;18.00;;;9.70;;
18296;SDS011;18066;52.106;5.534;2023-04-06T05:53:48;18.87;;;10.00;;
18296;SDS011;18066;52.106;5.534;2023-04-06T05:56:15;16.23;;;9.87;;
18296;SDS011;18066;52.106;5.534;2023-04-06T05:58:43;18.97;;;10.10;;
18296;SDS011;18066;52.106;5.534;2023-04-06T06:01:10;16.27;;;9.47;;
18296;SDS011;18066;52.106;5.534;2023-04-06T06:03:37;16.57;;;9.53;;
18296;SDS011;18066;52.106;5.534;2023-04-06T06:06:04;19.73;;;10.70;;
18296;SDS011;18066;52.106;5.534;2023-04-06T06:08:31;15.60;;;10.10;;
18296;SDS011;18066;52.106;5.534;2023-04-06T06:10:57;19.90;;;10.67;;
18296;SDS011;18066;52.106;5.534;2023-04-06T06:13:25;16.73;;;10.67;;
18296;SDS011;18066;52.106;5.534;2023-04-06T06:15:53;22.48;;;13.32;;
18296;SDS011;18066;52.106;5.534;2023-04-06T06:18:20;20.43;;;11.33;;
18296;SDS011;18066;52.106;5.534;2023-04-06T06:20:47;19.47;;;11.00;;
18296;SDS011;18066;52.106;5.534;2023-04-06T06:23:13;19.90;;;10.80;;
18296;SDS011;18066;52.106;5.534;2023-04-06T06:25:40;18.47;;;10.63;;
18296;SDS011;18066;52.106;5.534;2023-04-06T06:28:08;15.80;;;9.67;;
18296;SDS011;18066;52.106;5.534;2023-04-06T06:30:34;17.75;;;12.25;;
18296;SDS011;18066;52.106;5.534;2023-04-06T06:33:03;19.23;;;11.33;;
18296;SDS011;18066;52.106;5.534;2023-04-06T06:35:29;24.70;;;12.20;;
18296;SDS011;18066;52.106;5.534;2023-04-06T06:37:56;23.40;;;11.30;;
18296;SDS011;18066;52.106;5.534;2023-04-06T06:40:23;18.53;;;11.13;;
18296;SDS011;18066;52.106;5.534;2023-04-06T06:42:51;20.70;;;11.07;;
18296;SDS011;18066;52.106;5.534;2023-04-06T06:45:17;20.77;;;10.37;;
18296;SDS011;18066;52.106;5.534;2023-04-06T06:47:45;21.30;;;10.60;;
18296;SDS011;18066;52.106;5.534;2023-04-06T06:50:13;19.97;;;11.13;;
18296;SDS011;18066;52.106;5.534;2023-04-06T06:52:40;18.53;;;10.80;;
18296;SDS011;18066;52.106;5.534;2023-04-06T06:55:07;25.00;;;15.15;;
18296;SDS011;18066;52.106;5.534;2023-04-06T06:57:35;18.03;;;11.83;;
18296;SDS011;18066;52.106;5.534;2023-04-06T07:00:03;20.80;;;12.20;;
18296;SDS011;18066;52.106;5.534;2023-04-06T07:02:31;20.33;;;10.90;;
18296;SDS011;18066;52.106;5.534;2023-04-06T07:04:58;22.93;;;11.90;;
18296;SDS011;18066;52.106;5.534;2023-04-06T07:07:26;18.03;;;11.30;;
18296;SDS011;18066;52.106;5.534;2023-04-06T07:09:52;22.58;;;14.43;;
18296;SDS011;18066;52.106;5.534;2023-04-06T07:12:19;21.80;;;12.73;;
18296;SDS011;18066;52.106;5.534;2023-04-06T07:14:46;20.20;;;10.67;;
18296;SDS011;18066;52.106;5.534;2023-04-06T07:17:13;19.73;;;11.97;;
18296;SDS011;18066;52.106;5.534;2023-04-06T07:19:39;21.73;;;12.27;;
18296;SDS011;18066;52.106;5.534;2023-04-06T07:22:06;18.53;;;11.90;;
18296;SDS011;18066;52.106;5.534;2023-04-06T07:24:34;21.43;;;12.50;;
18296;SDS011;18066;52.106;5.534;2023-04-06T07:27:01;22.73;;;12.50;;
18296;SDS011;18066;52.106;5.534;2023-04-06T07:29:28;31.13;;;17.95;;
18296;SDS011;18066;52.106;5.534;2023-04-06T07:31:55;25.90;;;14.50;;
18296;SDS011;18066;52.106;5.534;2023-04-06T07:34:22;24.60;;;12.90;;
18296;SDS011;18066;52.106;5.534;2023-04-06T07:36:49;24.75;;;15.75;;
18296;SDS011;18066;52.106;5.534;2023-04-06T07:39:17;21.53;;;14.13;;
18296;SDS011;18066;52.106;5.534;2023-04-06T07:41:45;21.80;;;13.10;;
18296;SDS011;18066;52.106;5.534;2023-04-06T07:44:12;20.43;;;13.10;;
18296;SDS011;18066;52.106;5.534;2023-04-06T07:46:39;21.00;;;12.93;;
18296;SDS011;18066;52.106;5.534;2023-04-06T07:49:06;30.57;;;16.57;;
18296;SDS011;18066;52.106;5.534;2023-04-06T07:51:32;28.50;;;15.87;;
18296;SDS011;18066;52.106;5.534;2023-04-06T07:54:02;25.37;;;16.57;;
18296;SDS011;18066;52.106;5.534;2023-04-06T07:56:28;21.43;;;13.80;;
18296;SDS011;18066;52.106;5.534;2023-04-06T07:58:56;28.73;;;15.57;;
18296;SDS011;18066;52.106;5.534;2023-04-06T08:01:23;29.27;;;15.97;;
18296;SDS011;18066;52.106;5.534;2023-04-06T08:03:51;27.10;;;15.93;;
18296;SDS011;18066;52.106;5.534;2023-04-06T08:06:17;25.20;;;14.87;;
18296;SDS011;18066;52.106;5.534;2023-04-06T08:08:44;21.50;;;11.97;;
18296;SDS011;18066;52.106;5.534;2023-04-06T08:11:11;25.37;;;14.40;;
18296;SDS011;18066;52.106;5.534;2023-04-06T08:13:38;27.70;;;14.83;;
18296;SDS011;18066;52.106;5.534;2023-04-06T08:16:06;21.40;;;14.03;;
18296;SDS011;18066;52.106;5.534;2023-04-06T08:18:33;25.97;;;14.93;;
18296;SDS011;18066;52.106;5.534;2023-04-06T08:21:00;25.73;;;14.73;;
18296;SDS011;18066;52.106;5.534;2023-04-06T08:23:26;28.77;;;16.17;;
18296;SDS011;18066;52.106;5.534;2023-04-06T08:25:54;24.00;;;15.30;;
18296;SDS011;18066;52.106;5.534;2023-04-06T08:28:21;25.83;;;16.33;;
18296;SDS011;18066;52.106;5.534;2023-04-06T08:30:47;24.40;;;16.13;;
18296;SDS011;18066;52.106;5.534;2023-04-06T08:33:16;27.50;;;15.23;;
18296;SDS011;18066;52.106;5.534;2023-04-06T08:35:42;25.67;;;15.37;;
18296;SDS011;18066;52.106;5.534;2023-04-06T08:38:09;23.17;;;15.03;;
18296;SDS011;18066;52.106;5.534;2023-04-06T08:40:36;24.47;;;14.20;;
18296;SDS011;18066;52.106;5.534;2023-04-06T08:43:03;26.30;;;14.33;;
18296;SDS011;18066;52.106;5.534;2023-04-06T08:45:34;19.97;;;13.23;;
18296;SDS011;18066;52.106;5.534;2023-04-06T08:48:02;24.70;;;13.57;;
18296;SDS011;18066;52.106;5.534;2023-04-06T08:50:35;19.60;;;13.73;;
18296;SDS011;18066;52.106;5.534;2023-04-06T08:53:04;22.70;;;13.67;;
18296;SDS011;18066;52.106;5.534;2023-04-06T08:55:32;27.43;;;14.77;;
18296;SDS011;18066;52.106;5.534;2023-04-06T08:57:59;30.17;;;14.23;;
18296;SDS011;18066;52.106;5.534;2023-04-06T09:00:27;25.33;;;15.07;;
18296;SDS011;18066;52.106;5.534;2023-04-06T09:02:54;23.20;;;13.83;;
18296;SDS011;18066;52.106;5.534;2023-04-06T09:05:23;22.43;;;13.43;;
18296;SDS011;18066;52.106;5.534;2023-04-06T09:07:52;21.07;;;13.47;;
18296;SDS011;18066;52.106;5.534;2023-04-06T09:10:20;21.80;;;14.13;;
18296;SDS011;18066;52.106;5.534;2023-04-06T09:12:48;27.60;;;15.80;;
18296;SDS011;18066;52.106;5.534;2023-04-06T09:15:19;23.17;;;13.70;;
18296;SDS011;18066;52.106;5.534;2023-04-06T09:17:46;22.63;;;14.30;;
18296;SDS011;18066;52.106;5.534;2023-04-06T09:20:13;28.77;;;15.13;;
18296;SDS011;18066;52.106;5.534;2023-04-06T09:22:42;26.73;;;14.60;;
18296;SDS011;18066;52.106;5.534;2023-04-06T09:25:17;23.27;;;14.17;;
18296;SDS011;18066;52.106;5.534;2023-04-06T09:27:45;23.40;;;13.20;;
18296;SDS011;18066;52.106;5.534;2023-04-06T09:30:13;26.10;;;14.53;;
18296;SDS011;18066;52.106;5.534;2023-04-06T09:32:45;27.97;;;15.00;;
18296;SDS011;18066;52.106;5.534;2023-04-06T09:35:12;24.73;;;14.53;;
18296;SDS011;18066;52.106;5.534;2023-04-06T09:37:40;25.03;;;15.13;;
18296;SDS011;18066;52.106;5.534;2023-04-06T09:40:08;24.20;;;15.23;;
18296;SDS011;18066;52.106;5.534;2023-04-06T09:42:37;25.00;;;15.23;;
18296;SDS011;18066;52.106;5.534;2023-04-06T09:45:04;29.90;;;16.20;;
18296;SDS011;18066;52.106;5.534;2023-04-06T09:47:31;26.77;;;15.53;;
18296;SDS011;18066;52.106;5.534;2023-04-06T09:49:59;23.97;;;15.13;;
18296;SDS011;18066;52.106;5.534;2023-04-06T09:52:27;32.27;;;15.13;;
18296;SDS011;18066;52.106;5.534;2023-04-06T09:54:59;27.47;;;14.87;;
18296;SDS011;18066;52.106;5.534;2023-04-06T09:57:31;24.00;;;14.40;;
18296;SDS011;18066;52.106;5.534;2023-04-06T10:00:05;25.93;;;13.90;;
18296;SDS011;18066;52.106;5.534;2023-04-06T10:02:36;27.03;;;15.53;;
18296;SDS011;18066;52.106;5.534;2023-04-06T10:05:12;28.50;;;15.57;;
18296;SDS011;18066;52.106;5.534;2023-04-06T10:07:45;26.67;;;15.23;;
18296;SDS011;18066;52.106;5.534;2023-04-06T10:10:14;24.37;;;15.43;;
18296;SDS011;18066;52.106;5.534;2023-04-06T10:12:42;27.37;;;16.70;;
18296;SDS011;18066;52.106;5.534;2023-04-06T10:15:10;28.57;;;15.53;;
18296;SDS011;18066;52.106;5.534;2023-04-06T10:17:37;31.55;;;18.35;;
18296;SDS011;18066;52.106;5.534;2023-04-06T10:20:05;27.83;;;16.47;;
18296;SDS011;18066;52.106;5.534;2023-04-06T10:22:38;31.20;;;16.40;;
18296;SDS011;18066;52.106;5.534;2023-04-06T10:25:09;29.27;;;16.67;;
18296;SDS011;18066;52.106;5.534;2023-04-06T10:27:36;25.63;;;15.40;;
18296;SDS011;18066;52.106;5.534;2023-04-06T10:30:05;22.87;;;13.97;;
18296;SDS011;18066;52.106;5.534;2023-04-06T10:32:33;24.42;;;15.43;;
18296;SDS011;18066;52.106;5.534;2023-04-06T10:35:05;20.70;;;12.67;;
18296;SDS011;18066;52.106;5.534;2023-04-06T10:37:45;23.10;;;12.87;;
18296;SDS011;18066;52.106;5.534;2023-04-06T10:40:21;20.77;;;10.60;;
18296;SDS011;18066;52.106;5.534;2023-04-06T10:42:49;16.77;;;11.13;;
18296;SDS011;18066;52.106;5.534;2023-04-06T10:45:21;20.77;;;11.63;;
18296;SDS011;18066;52.106;5.534;2023-04-06T10:47:49;18.20;;;9.77;;
18296;SDS011;18066;52.106;5.534;2023-04-06T10:50:19;19.03;;;10.50;;
18296;SDS011;18066;52.106;5.534;2023-04-06T10:52:46;15.03;;;8.43;;
18296;SDS011;18066;52.106;5.534;2023-04-06T10:55:24;14.27;;;9.27;;
18296;SDS011;18066;52.106;5.534;2023-04-06T10:57:52;18.17;;;9.17;;
18296;SDS011;18066;52.106;5.534;2023-04-06T11:00:20;16.33;;;8.63;;
18296;SDS011;18066;52.106;5.534;2023-04-06T11:02:47;13.37;;;8.07;;
18296;SDS011;18066;52.106;5.534;2023-04-06T11:05:14;12.83;;;8.53;;
18296;SDS011;18066;52.106;5.534;2023-04-06T11:07:41;10.90;;;6.77;;
18296;SDS011;18066;52.106;5.534;2023-04-06T11:10:10;12.77;;;7.10;;
18296;SDS011;18066;52.106;5.534;2023-04-06T11:12:36;10.97;;;7.20;;
18296;SDS011;18066;52.106;5.534;2023-04-06T11:15:04;12.03;;;7.63;;
18296;SDS011;18066;52.106;5.534;2023-04-06T11:17:33;14.50;;;7.47;;
18296;SDS011;18066;52.106;5.534;2023-04-06T11:20:00;9.30;;;6.77;;
18296;SDS011;18066;52.106;5.534;2023-04-06T11:22:28;15.43;;;8.40;;
18296;SDS011;18066;52.106;5.534;2023-04-06T11:25:04;11.77;;;7.47;;
18296;SDS011;18066;52.106;5.534;2023-04-06T11:27:31;11.47;;;6.17;;
18296;SDS011;18066;52.106;5.534;2023-04-06T11:29:59;10.20;;;6.27;;
18296;SDS011;18066;52.106;5.534;2023-04-06T11:32:26;11.57;;;5.97;;
18296;SDS011;18066;52.106;5.534;2023-04-06T11:34:57;10.07;;;5.63;;
18296;SDS011;18066;52.106;5.534;2023-04-06T11:37:25;13.20;;;7.70;;
18296;SDS011;18066;52.106;5.534;2023-04-06T11:39:54;13.73;;;6.20;;
18296;SDS011;18066;52.106;5.534;2023-04-06T11:42:22;11.23;;;6.00;;
18296;SDS011;18066;52.106;5.534;2023-04-06T11:44:50;10.10;;;5.97;;
18296;SDS011;18066;52.106;5.534;2023-04-06T11:47:17;10.23;;;6.50;;
18296;SDS011;18066;52.106;5.534;2023-04-06T11:49:45;11.38;;;7.45;;
18296;SDS011;18066;52.106;5.534;2023-04-06T11:52:16;11.43;;;7.67;;
18296;SDS011;18066;52.106;5.534;2023-04-06T11:54:45;19.33;;;12.57;;
18296;SDS011;18066;52.106;5.534;2023-04-06T11:57:12;9.67;;;5.97;;
18296;SDS011;18066;52.106;5.534;2023-04-06T11:59:39;7.60;;;5.20;;
18296;SDS011;18066;52.106;5.534;2023-04-06T12:02:06;8.73;;;5.97;;
18296;SDS011;18066;52.106;5.534;2023-04-06T12:04:33;10.70;;;6.65;;
18296;SDS011;18066;52.106;5.534;2023-04-06T12:07:00;9.53;;;6.13;;
18296;SDS011;18066;52.106;5.534;2023-04-06T12:09:28;13.57;;;9.80;;
18296;SDS011;18066;52.106;5.534;2023-04-06T12:11:55;15.93;;;12.83;;
18296;SDS011;18066;52.106;5.534;2023-04-06T12:14:22;13.00;;;6.70;;
18296;SDS011;18066;52.106;5.534;2023-04-06T12:16:49;11.07;;;7.17;;
18296;SDS011;18066;52.106;5.534;2023-04-06T12:19:16;11.93;;;6.80;;
18296;SDS011;18066;52.106;5.534;2023-04-06T12:21:43;12.65;;;6.38;;
18296;SDS011;18066;52.106;5.534;2023-04-06T12:24:10;7.90;;;4.93;;
18296;SDS011;18066;52.106;5.534;2023-04-06T12:26:38;9.77;;;5.40;;
18296;SDS011;18066;52.106;5.534;2023-04-06T12:29:06;8.63;;;5.20;;
18296;SDS011;18066;52.106;5.534;2023-04-06T12:31:34;12.70;;;6.70;;
18296;SDS011;18066;52.106;5.534;2023-04-06T12:34:01;6.90;;;5.47;;
18296;SDS011;18066;52.106;5.534;2023-04-06T12:36:29;9.73;;;6.10;;
18296;SDS011;18066;52.106;5.534;2023-04-06T12:38:56;8.43;;;6.03;;
18296;SDS011;18066;52.106;5.534;2023-04-06T12:41:22;9.93;;;5.93;;
18296;SDS011;18066;52.106;5.534;2023-04-06T12:43:51;9.00;;;6.00;;
18296;SDS011;18066;52.106;5.534;2023-04-06T12:46:18;10.97;;;5.80;;
18296;SDS011;18066;52.106;5.534;2023-04-06T12:48:44;8.00;;;4.97;;
18296;SDS011;18066;52.106;5.534;2023-04-06T12:51:11;8.37;;;5.50;;
18296;SDS011;18066;52.106;5.534;2023-04-06T12:53:38;8.70;;;5.23;;
18296;SDS011;18066;52.106;5.534;2023-04-06T12:56:10;9.63;;;6.07;;
18296;SDS011;18066;52.106;5.534;2023-04-06T12:58:38;9.13;;;6.17;;
18296;SDS011;18066;52.106;5.534;2023-04-06T13:01:08;12.53;;;6.27;;
18296;SDS011;18066;52.106;5.534;2023-04-06T13:03:36;9.13;;;6.00;;
18296;SDS011;18066;52.106;5.534;2023-04-06T13:06:03;9.63;;;5.87;;
18296;SDS011;18066;52.106;5.534;2023-04-06T13:08:30;9.57;;;6.63;;
18296;SDS011;18066;52.106;5.534;2023-04-06T13:10:57;9.13;;;6.10;;
18296;SDS011;18066;52.106;5.534;2023-04-06T13:13:24;10.63;;;6.67;;
18296;SDS011;18066;52.106;5.534;2023-04-06T13:15:52;9.03;;;5.63;;
18296;SDS011;18066;52.106;5.534;2023-04-06T13:18:21;10.45;;;7.28;;
18296;SDS011;18066;52.106;5.534;2023-04-06T13:20:48;9.07;;;6.67;;
18296;SDS011;18066;52.106;5.534;2023-04-06T13:23:15;9.30;;;6.20;;
18296;SDS011;18066;52.106;5.534;2023-04-06T13:25:42;9.00;;;6.00;;
18296;SDS011;18066;52.106;5.534;2023-04-06T13:28:10;11.47;;;7.03;;
18296;SDS011;18066;52.106;5.534;2023-04-06T13:30:37;11.53;;;6.13;;
18296;SDS011;18066;52.106;5.534;2023-04-06T13:33:04;7.50;;;5.83;;
18296;SDS011;18066;52.106;5.534;2023-04-06T13:35:32;9.93;;;6.40;;
18296;SDS011;18066;52.106;5.534;2023-04-06T13:38:00;9.37;;;6.20;;
18296;SDS011;18066;52.106;5.534;2023-04-06T13:40:27;11.10;;;7.38;;
18296;SDS011;18066;52.106;5.534;2023-04-06T13:42:54;10.03;;;6.43;;
18296;SDS011;18066;52.106;5.534;2023-04-06T13:45:21;9.50;;;6.57;;
18296;SDS011;18066;52.106;5.534;2023-04-06T13:47:48;10.97;;;6.80;;
18296;SDS011;18066;52.106;5.534;2023-04-06T13:50:15;14.87;;;6.53;;
18296;SDS011;18066;52.106;5.534;2023-04-06T13:52:43;11.03;;;6.20;;
18296;SDS011;18066;52.106;5.534;2023-04-06T13:55:10;12.77;;;8.90;;
18296;SDS011;18066;52.106;5.534;2023-04-06T13:57:37;12.67;;;7.67;;
18296;SDS011;18066;52.106;5.534;2023-04-06T14:00:04;10.40;;;7.00;;
18296;SDS011;18066;52.106;5.534;2023-04-06T14:02:32;11.63;;;6.10;;
18296;SDS011;18066;52.106;5.534;2023-04-06T14:04:59;10.97;;;6.77;;
18296;SDS011;18066;52.106;5.534;2023-04-06T14:07:26;13.57;;;6.80;;
18296;SDS011;18066;52.106;5.534;2023-04-06T14:09:54;10.13;;;6.87;;
18296;SDS011;18066;52.106;5.534;2023-04-06T14:12:21;11.23;;;6.80;;
18296;SDS011;18066;52.106;5.534;2023-04-06T14:14:48;11.37;;;7.07;;
18296;SDS011;18066;52.106;5.534;2023-04-06T14:17:15;11.13;;;7.53;;
18296;SDS011;18066;52.106;5.534;2023-04-06T14:19:41;12.20;;;7.17;;
18296;SDS011;18066;52.106;5.534;2023-04-06T14:22:09;13.60;;;8.90;;
18296;SDS011;18066;52.106;5.534;2023-04-06T14:24:36;11.53;;;7.97;;
18296;SDS011;18066;52.106;5.534;2023-04-06T14:27:04;12.33;;;7.63;;
18296;SDS011;18066;52.106;5.534;2023-04-06T14:29:31;12.40;;;8.10;;
18296;SDS011;18066;52.106;5.534;2023-04-06T14:31:58;11.93;;;7.50;;